Time;durP1;ratioP1;P1;durP2;ratioP2;P2;SDS_P1;SDS_P2;PMS_P1;PMS_P2;Temp;Humidity;BMP_temperature;BMP_pressure;BME280_temperature;BME280_humidity;BME280_pressure;Samples;Min_cycle;Max_cycle;Signal;HPM_P1;HPM_P2
2023/04/28 00:01:14;;;;;;;7.47;4.27;;;;;;;-143.99;100.00;64180.81;6076055;29;20259;-73
2023/04/28 00:04:35;;;;;;;7.30;5.50;;;;;;;-143.99;100.00;64180.81;6082497;29;20231;-74
2023/04/28 00:07:58;;;;;;;6.30;4.07;;;;;;;-143.99;100.00;64180.81;6081609;29;20264;-75
2023/04/28 00:11:18;;;;;;;6.10;4.57;;;;;;;-143.99;100.00;64180.81;6068804;29;20312;-74
2023/04/28 00:14:40;;;;;;;7.00;4.63;;;;;;;-143.99;100.00;64180.81;6076175;29;20277;-75
2023/04/28 00:18:01;;;;;;;6.20;5.20;;;;;;;-143.99;100.00;64180.81;6076155;29;20249;-74
2023/04/28 00:21:22;;;;;;;7.83;6.07;;;;;;;-143.99;100.00;64180.81;6076448;29;20229;-74
2023/04/28 00:24:44;;;;;;;6.70;4.63;;;;;;;-143.99;100.00;64180.81;6066581;29;20354;-73
2023/04/28 00:28:05;;;;;;;7.37;4.27;;;;;;;-143.99;100.00;64180.81;6072086;29;20236;-74
2023/04/28 00:31:27;;;;;;;7.40;6.27;;;;;;;-143.99;100.00;64180.81;6085967;29;20230;-75
2023/04/28 00:34:47;;;;;;;5.27;4.87;;;;;;;-143.99;100.00;64180.81;6085371;29;20613;-74
2023/04/28 00:38:08;;;;;;;5.90;4.57;;;;;;;-143.99;100.00;64180.81;6082177;29;20315;-73
2023/04/28 00:41:31;;;;;;;8.87;5.70;;;;;;;-143.99;100.00;64180.81;6090797;29;20241;-74
2023/04/28 00:44:51;;;;;;;5.80;4.13;;;;;;;-143.99;100.00;64180.81;6083005;29;20558;-74
2023/04/28 00:48:13;;;;;;;6.27;4.50;;;;;;;-143.99;100.00;64180.81;6083597;29;20606;-75
2023/04/28 00:51:34;;;;;;;5.63;5.00;;;;;;;-143.99;100.00;64180.81;6081167;29;20602;-74
2023/04/28 00:54:55;;;;;;;6.60;5.30;;;;;;;-143.99;100.00;64180.81;6086782;28;20606;-74
2023/04/28 00:58:19;;;;;;;5.13;4.50;;;;;;;-143.99;100.00;64180.81;6080688;29;20237;-74
2023/04/28 01:01:40;;;;;;;5.07;3.97;;;;;;;-143.99;100.00;64180.81;6097512;28;20236;-74
2023/04/28 01:05:02;;;;;;;11.23;6.57;;;;;;;-143.99;100.00;64180.81;6080919;29;20240;-74
2023/04/28 01:08:23;;;;;;;6.80;5.13;;;;;;;-143.99;100.00;64180.81;6099885;29;20245;-74
2023/04/28 01:11:45;;;;;;;4.97;4.43;;;;;;;-143.99;100.00;64180.81;6054301;29;20236;-73
2023/04/28 01:15:17;;;;;;;5.10;4.23;;;;;;;-143.99;100.00;64180.81;6073232;29;20240;-74
2023/04/28 01:18:41;;;;;;;5.07;4.57;;;;;;;-143.99;100.00;64180.81;6077950;29;20258;-74
2023/04/28 01:22:03;;;;;;;6.97;4.30;;;;;;;-143.99;100.00;64180.81;6083527;29;20237;-74
2023/04/28 01:25:25;;;;;;;6.03;4.83;;;;;;;-143.99;100.00;64180.81;6058998;29;20228;-74
2023/04/28 01:28:47;;;;;;;5.37;3.13;;;;;;;-143.99;100.00;64180.81;6079473;29;20655;-73
2023/04/28 01:32:08;;;;;;;8.67;5.03;;;;;;;-143.99;100.00;64180.81;6075157;29;20416;-74
2023/04/28 01:35:30;;;;;;;5.17;4.13;;;;;;;-143.99;100.00;64180.81;6074213;29;20614;-74
2023/04/28 01:38:50;;;;;;;5.10;3.93;;;;;;;-143.99;100.00;64180.81;6079280;29;20239;-74
2023/04/28 01:42:13;;;;;;;5.40;4.23;;;;;;;-143.99;100.00;64180.81;6087303;29;20225;-74
2023/04/28 01:45:33;;;;;;;5.77;4.07;;;;;;;-143.99;100.00;64180.81;6093445;29;20239;-75
2023/04/28 01:48:55;;;;;;;7.07;4.73;;;;;;;-143.99;100.00;64180.81;6081877;29;20248;-74
2023/04/28 01:52:18;;;;;;;8.30;5.97;;;;;;;-143.99;100.00;64180.81;6089571;29;20220;-76
2023/04/28 01:55:39;;;;;;;5.33;4.00;;;;;;;-143.99;100.00;64180.81;6079950;29;20335;-73
2023/04/28 01:59:01;;;;;;;7.53;4.73;;;;;;;-143.99;100.00;64180.81;6090647;29;20231;-74
2023/04/28 02:02:23;;;;;;;5.80;4.57;;;;;;;-143.99;100.00;64180.81;6078325;29;20283;-74
2023/04/28 02:05:44;;;;;;;6.13;4.27;;;;;;;-143.99;100.00;64180.81;6075868;29;20614;-76
2023/04/28 02:09:05;;;;;;;4.80;4.13;;;;;;;-143.99;100.00;64180.81;6078801;29;20252;-75
2023/04/28 02:12:27;;;;;;;5.10;4.43;;;;;;;-143.99;100.00;64180.81;6091910;29;20240;-73
2023/04/28 02:15:50;;;;;;;5.43;4.20;;;;;;;-143.99;100.00;64180.81;6074326;29;20236;-75
2023/04/28 02:19:10;;;;;;;8.10;5.17;;;;;;;-143.99;100.00;64180.81;6086593;28;20232;-74
2023/04/28 02:22:31;;;;;;;3.80;3.50;;;;;;;-143.99;100.00;64180.81;6086790;29;20245;-73
2023/04/28 02:26:00;;;;;;;4.90;4.23;;;;;;;-143.99;100.00;64180.81;6074026;29;20228;-74
2023/04/28 02:29:21;;;;;;;5.57;4.97;;;;;;;-143.99;100.00;64180.81;6080003;29;20248;-74
2023/04/28 02:32:43;;;;;;;5.33;4.33;;;;;;;-143.99;100.00;64180.81;6079225;29;20225;-74
2023/04/28 02:36:05;;;;;;;5.27;4.80;;;;;;;-143.99;100.00;64180.81;6074551;29;20768;-74
2023/04/28 02:39:28;;;;;;;4.90;4.43;;;;;;;-143.99;100.00;64180.81;6076252;29;20573;-75
2023/04/28 02:42:50;;;;;;;4.37;3.03;;;;;;;-143.99;100.00;64180.81;6077600;29;20355;-73
2023/04/28 02:46:11;;;;;;;6.03;5.43;;;;;;;-143.99;100.00;64180.81;6088236;29;20475;-74
2023/04/28 02:49:34;;;;;;;5.13;4.43;;;;;;;-143.99;100.00;64180.81;6072307;29;20264;-74
2023/04/28 02:52:55;;;;;;;4.70;3.60;;;;;;;-143.99;100.00;64180.81;6092942;29;20256;-75
2023/04/28 02:56:16;;;;;;;4.40;3.30;;;;;;;-143.99;100.00;64180.81;6076997;29;20228;-74
2023/04/28 02:59:37;;;;;;;3.93;3.53;;;;;;;-143.99;100.00;64180.81;6074660;29;20674;-74
2023/04/28 03:02:58;;;;;;;6.20;4.80;;;;;;;-143.99;100.00;64180.81;6078266;29;20324;-74
2023/04/28 03:06:20;;;;;;;4.70;3.93;;;;;;;-143.99;100.00;64180.81;6084225;29;20216;-74
2023/04/28 03:09:41;;;;;;;7.77;5.83;;;;;;;-143.99;100.00;64180.81;6076232;29;20232;-74
2023/04/28 03:13:02;;;;;;;5.57;4.93;;;;;;;-143.99;100.00;64180.81;6083101;29;20225;-74
2023/04/28 03:16:24;;;;;;;6.97;3.47;;;;;;;-143.99;100.00;64180.81;6072672;29;20236;-74
2023/04/28 03:19:45;;;;;;;5.20;3.60;;;;;;;-143.99;100.00;64180.81;6087653;28;20228;-75
2023/04/28 03:23:07;;;;;;;3.77;3.47;;;;;;;-143.99;100.00;64180.81;6083118;29;20670;-74
2023/04/28 03:26:28;;;;;;;4.37;3.97;;;;;;;-143.99;100.00;64180.81;6058825;29;20236;-74
2023/04/28 03:29:49;;;;;;;4.33;3.93;;;;;;;-143.99;100.00;64180.81;6086699;29;20240;-74
2023/04/28 03:33:10;;;;;;;5.03;4.57;;;;;;;-143.99;100.00;64180.81;6078878;29;20233;-74
2023/04/28 03:36:31;;;;;;;3.60;3.30;;;;;;;-143.99;100.00;64180.81;6074443;29;20335;-73
2023/04/28 03:40:02;;;;;;;6.13;3.47;;;;;;;-143.99;100.00;64180.81;6081475;29;20235;-74
2023/04/28 03:43:30;;;;;;;4.47;4.07;;;;;;;-143.99;100.00;64180.81;6078923;29;20228;-74
2023/04/28 03:47:20;;;;;;;4.70;4.30;;;;;;;-143.99;100.00;64180.81;6084998;29;20233;-74
2023/04/28 03:50:42;;;;;;;4.23;3.80;;;;;;;-143.99;100.00;64180.81;6076657;29;20875;-74
2023/04/28 03:54:03;;;;;;;5.60;4.60;;;;;;;-143.99;100.00;64180.81;6077937;29;20545;-73
2023/04/28 03:57:26;;;;;;;8.23;3.83;;;;;;;-143.99;100.00;64180.81;6090454;29;20228;-74
2023/04/28 04:00:47;;;;;;;6.53;4.07;;;;;;;-143.99;100.00;64180.81;6072838;29;20239;-74
2023/04/28 04:04:08;;;;;;;4.83;3.80;;;;;;;-143.99;100.00;64180.81;6079176;29;20253;-74
2023/04/28 04:07:29;;;;;;;16.73;12.50;;;;;;;-143.99;100.00;64180.81;6078999;29;20232;-74
2023/04/28 04:10:53;;;;;;;25.30;18.97;;;;;;;-143.99;100.00;64180.81;6066145;29;20326;-74
2023/04/28 04:14:15;;;;;;;14.93;12.07;;;;;;;-143.99;100.00;64180.81;6067110;29;20236;-74
2023/04/28 04:17:37;;;;;;;6.67;4.77;;;;;;;-143.99;100.00;64180.81;6074749;29;20233;-74
2023/04/28 04:20:58;;;;;;;7.30;3.50;;;;;;;-143.99;100.00;64180.81;6074988;29;20233;-73
2023/04/28 04:24:19;;;;;;;4.37;3.67;;;;;;;-143.99;100.00;64180.81;6080280;29;20251;-73
2023/04/28 04:27:40;;;;;;;3.57;2.60;;;;;;;-143.99;100.00;64180.81;6077660;29;20233;-74
2023/04/28 04:31:03;;;;;;;5.53;3.53;;;;;;;-143.99;100.00;64180.81;6063946;29;20324;-73
2023/04/28 04:34:23;;;;;;;4.70;3.67;;;;;;;-143.99;100.00;64180.81;6089374;29;20320;-74
2023/04/28 04:37:45;;;;;;;3.07;2.57;;;;;;;-143.99;100.00;64180.81;6087156;29;20236;-73
2023/04/28 04:41:06;;;;;;;4.77;3.17;;;;;;;-143.99;100.00;64180.81;6087145;29;20252;-74
2023/04/28 04:44:27;;;;;;;3.47;2.87;;;;;;;-143.99;100.00;64180.81;6071555;29;20233;-73
2023/04/28 04:47:49;;;;;;;4.03;3.63;;;;;;;-143.99;100.00;64180.81;6086279;29;21170;-75
2023/04/28 04:51:11;;;;;;;4.50;3.27;;;;;;;-143.99;100.00;64180.81;6064388;29;20323;-74
2023/04/28 04:54:35;;;;;;;5.37;3.63;;;;;;;-143.99;100.00;64180.81;6069867;29;20507;-74
2023/04/28 04:57:59;;;;;;;3.30;2.43;;;;;;;-143.99;100.00;64180.81;6066269;29;20232;-74
2023/04/28 05:01:20;;;;;;;4.53;3.40;;;;;;;-143.99;100.00;64180.81;6082064;29;20240;-70
2023/04/28 05:04:43;;;;;;;3.37;2.33;;;;;;;-143.99;100.00;64180.81;6056524;29;20256;-74
2023/04/28 05:08:05;;;;;;;4.70;3.50;;;;;;;-143.99;100.00;64180.81;6084874;29;20628;-71
2023/04/28 05:11:26;;;;;;;3.97;3.20;;;;;;;-143.99;100.00;64180.81;6063331;29;20232;-70
2023/04/28 05:14:47;;;;;;;4.07;2.77;;;;;;;-143.99;100.00;64180.81;6069313;29;20245;-69
2023/04/28 05:18:10;;;;;;;4.70;4.17;;;;;;;-143.99;100.00;64180.81;6075905;29;20236;-70
2023/04/28 05:21:33;;;;;;;4.33;3.13;;;;;;;-143.99;100.00;64180.81;6077884;29;20248;-69
2023/04/28 05:24:54;;;;;;;4.53;2.80;;;;;;;-143.99;100.00;64180.81;6086528;29;20237;-69
2023/04/28 05:28:15;;;;;;;3.17;2.87;;;;;;;-143.99;100.00;64180.81;6077467;29;20301;-69
2023/04/28 05:31:38;;;;;;;3.93;2.07;;;;;;;-143.99;100.00;64180.81;6061355;29;20236;-69
2023/04/28 05:34:58;;;;;;;5.63;3.97;;;;;;;-143.99;100.00;64180.81;6038444;29;1073427;-73
2023/04/28 05:38:21;;;;;;;4.10;2.73;;;;;;;-143.99;100.00;64180.81;6085617;29;20232;-71
2023/04/28 05:41:42;;;;;;;3.73;2.40;;;;;;;-143.99;100.00;64180.81;6091873;29;20240;-72
2023/04/28 05:45:04;;;;;;;2.60;2.37;;;;;;;-143.99;100.00;64180.81;6086198;29;20237;-70
2023/04/28 05:48:25;;;;;;;3.77;2.60;;;;;;;-143.99;100.00;64180.81;6090401;29;20524;-69
2023/04/28 05:51:46;;;;;;;4.43;2.57;;;;;;;-143.99;100.00;64180.81;6070437;29;20228;-69
2023/04/28 05:55:09;;;;;;;3.10;2.60;;;;;;;-143.99;100.00;64180.81;6082713;29;20244;-70
2023/04/28 05:58:31;;;;;;;3.17;2.90;;;;;;;-143.99;100.00;64180.81;6065634;29;20347;-71
2023/04/28 06:01:52;;;;;;;4.27;2.43;;;;;;;-143.99;100.00;64180.81;6064939;29;20232;-71
2023/04/28 06:05:13;;;;;;;3.77;2.40;;;;;;;-143.99;100.00;64180.81;6078057;29;20323;-73
2023/04/28 06:08:35;;;;;;;2.67;2.47;;;;;;;-143.99;100.00;64180.81;6079562;29;20264;-77
2023/04/28 06:11:59;;;;;;;3.63;2.60;;;;;;;-143.99;100.00;64180.81;6077706;29;20240;-72
2023/04/28 06:15:21;;;;;;;8.27;4.67;;;;;;;-143.99;100.00;64180.81;6090637;29;23763;-74
2023/04/28 06:18:41;;;;;;;2.93;2.70;;;;;;;-143.99;100.00;64180.81;6063895;28;20248;-73
2023/04/28 06:22:02;;;;;;;2.30;1.77;;;;;;;-143.99;100.00;64180.81;6083294;29;20548;-75
2023/04/28 06:25:24;;;;;;;2.30;2.20;;;;;;;-143.99;100.00;64180.81;6077611;29;20307;-71
2023/04/28 06:28:46;;;;;;;1.90;1.70;;;;;;;-143.99;100.00;64180.81;6057863;29;20237;-70
2023/04/28 06:32:07;;;;;;;3.20;2.43;;;;;;;-143.99;100.00;64180.81;6077814;29;20463;-72
2023/04/28 06:35:28;;;;;;;2.40;2.20;;;;;;;-143.99;100.00;64180.81;6069063;29;20239;-70
2023/04/28 06:38:49;;;;;;;6.37;3.03;;;;;;;-143.99;100.00;64180.81;6069269;29;20379;-71
2023/04/28 06:42:10;;;;;;;4.83;2.50;;;;;;;-143.99;100.00;64180.81;6089017;29;20229;-68
2023/04/28 06:45:37;;;;;;;2.20;1.93;;;;;;;-143.99;100.00;64180.81;6062104;29;20316;-69
2023/04/28 06:48:59;;;;;;;2.37;2.13;;;;;;;-143.99;100.00;64180.81;6073061;29;20266;-68
2023/04/28 06:52:21;;;;;;;2.00;1.90;;;;;;;-143.99;100.00;64180.81;6080561;29;20241;-72
2023/04/28 06:55:42;;;;;;;7.37;2.53;;;;;;;-143.99;100.00;64180.81;6057453;29;20252;-69
2023/04/28 06:59:03;;;;;;;2.63;2.43;;;;;;;-143.99;100.00;64180.81;6059874;29;20229;-69
2023/04/28 07:02:25;;;;;;;2.23;2.03;;;;;;;-143.99;100.00;64180.81;6068106;29;20228;-71
2023/04/28 07:05:47;;;;;;;4.03;3.37;;;;;;;-143.99;100.00;64180.81;6057172;29;20228;-71
2023/04/28 07:09:08;;;;;;;2.80;1.40;;;;;;;-143.99;100.00;64180.81;6045198;29;20236;-70
2023/04/28 07:12:29;;;;;;;2.00;1.60;;;;;;;-143.99;100.00;64180.81;6066544;29;20237;-71
2023/04/28 07:15:50;;;;;;;6.97;2.50;;;;;;;-143.99;100.00;64180.81;6070544;28;20236;-72
2023/04/28 07:19:13;;;;;;;1.97;1.70;;;;;;;-143.99;100.00;64180.81;6053352;28;20603;-70
2023/04/28 07:22:34;;;;;;;2.10;1.87;;;;;;;-143.99;100.00;64180.81;6033207;29;20228;-71
2023/04/28 07:25:55;;;;;;;2.00;1.90;;;;;;;-143.99;100.00;64180.81;6031404;29;20596;-69
2023/04/28 07:29:15;;;;;;;2.70;2.50;;;;;;;-143.99;100.00;64180.81;6054388;29;20275;-70
2023/04/28 07:32:36;;;;;;;3.17;1.97;;;;;;;-143.99;100.00;64180.81;6073528;29;20664;-71
2023/04/28 07:35:59;;;;;;;2.53;2.33;;;;;;;-143.99;100.00;64180.81;6058421;29;20269;-71
2023/04/28 07:39:20;;;;;;;3.20;2.40;;;;;;;-143.99;100.00;64180.81;6069231;29;20232;-69
2023/04/28 07:42:41;;;;;;;5.13;2.30;;;;;;;-143.99;100.00;64180.81;6080564;29;20225;-68
2023/04/28 07:46:02;;;;;;;2.30;2.10;;;;;;;-143.99;100.00;64180.81;6075554;29;20234;-70
2023/04/28 07:49:22;;;;;;;1.97;1.70;;;;;;;-143.99;100.00;64180.81;6066196;29;20617;-69
2023/04/28 07:52:44;;;;;;;3.83;1.40;;;;;;;-143.99;100.00;64180.81;6082524;29;20244;-71
2023/04/28 07:56:06;;;;;;;4.60;1.90;;;;;;;-143.99;100.00;64180.81;6071670;29;20232;-70
2023/04/28 07:59:27;;;;;;;3.27;1.67;;;;;;;-143.99;100.00;64180.81;6078271;28;20591;-71
2023/04/28 08:02:48;;;;;;;3.23;2.23;;;;;;;-143.99;100.00;64180.81;6070015;29;20328;-72
2023/04/28 08:06:09;;;;;;;3.63;2.23;;;;;;;-143.99;100.00;64180.81;6063792;29;20236;-72
2023/04/28 08:09:31;;;;;;;1.53;1.43;;;;;;;-143.99;100.00;64180.81;6065238;29;20239;-69
2023/04/28 08:12:52;;;;;;;1.67;1.50;;;;;;;-143.99;100.00;64180.81;6076967;29;20252;-70
2023/04/28 08:16:13;;;;;;;1.67;1.57;;;;;;;-143.99;100.00;64180.81;6065735;29;20240;-73
2023/04/28 08:19:34;;;;;;;3.43;2.37;;;;;;;-143.99;100.00;64180.81;6068613;29;20228;-70
2023/04/28 08:22:55;;;;;;;4.63;2.53;;;;;;;-143.99;100.00;64180.81;6071884;29;20225;-70
2023/04/28 08:26:17;;;;;;;3.87;2.83;;;;;;;-143.99;100.00;64180.81;6082874;29;20246;-73
2023/04/28 08:29:39;;;;;;;2.20;2.00;;;;;;;-143.99;100.00;64180.81;6074403;28;20231;-70
2023/04/28 08:32:59;;;;;;;3.73;1.50;;;;;;;-143.99;100.00;64180.81;6086917;29;20268;-71
2023/04/28 08:36:22;;;;;;;1.50;1.40;;;;;;;-143.99;100.00;64180.81;6088775;28;20244;-71
2023/04/28 08:39:43;;;;;;;1.77;1.43;;;;;;;-143.99;100.00;64180.81;6072191;29;20241;-73
2023/04/28 08:43:05;;;;;;;3.83;1.83;;;;;;;-143.99;100.00;64180.81;6078629;29;21851;-73
2023/04/28 08:46:27;;;;;;;1.93;1.70;;;;;;;-143.99;100.00;64180.81;6074890;29;20603;-72
2023/04/28 08:49:49;;;;;;;4.60;2.77;;;;;;;-143.99;100.00;64180.81;6078620;29;20541;-71
2023/04/28 08:53:12;;;;;;;5.23;2.17;;;;;;;-143.99;100.00;64180.81;6076326;29;20232;-70
2023/04/28 08:56:34;;;;;;;3.53;2.07;;;;;;;-143.99;100.00;64180.81;6066555;29;20248;-72
2023/04/28 08:59:56;;;;;;;2.63;2.43;;;;;;;-143.99;100.00;64180.81;6072789;29;20241;-71
2023/04/28 09:03:17;;;;;;;3.37;2.07;;;;;;;-143.99;100.00;64180.81;6069225;29;20228;-70
2023/04/28 09:06:38;;;;;;;2.33;2.00;;;;;;;-143.99;100.00;64180.81;6066954;29;20261;-69
2023/04/28 09:10:16;;;;;;;2.00;1.73;;;;;;;-143.99;100.00;64180.81;6057929;29;20244;-70
2023/04/28 09:13:38;;;;;;;2.10;1.90;;;;;;;-143.99;100.00;64180.81;6066149;29;20248;-69
2023/04/28 09:17:01;;;;;;;2.50;1.70;;;;;;;-143.99;100.00;64180.81;6080349;29;20559;-70
2023/04/28 09:20:23;;;;;;;3.37;1.87;;;;;;;-143.99;100.00;64180.81;6078744;28;20287;-70
2023/04/28 09:23:48;;;;;;;2.57;1.90;;;;;;;-143.99;100.00;64180.81;6077314;29;20228;-71
2023/04/28 09:27:10;;;;;;;2.90;2.33;;;;;;;-143.99;100.00;64180.81;6085911;28;20319;-68
2023/04/28 09:30:40;;;;;;;3.47;3.17;;;;;;;-143.99;100.00;64180.81;6080921;29;20229;-72
2023/04/28 09:34:02;;;;;;;4.93;3.10;;;;;;;-143.99;100.00;64180.81;6073419;29;20338;-70
2023/04/28 09:37:25;;;;;;;2.27;2.17;;;;;;;-143.99;100.00;64180.81;6088129;29;20233;-71
2023/04/28 09:40:51;;;;;;;2.47;2.27;;;;;;;-143.99;100.00;64180.81;6068603;29;20327;-69
2023/04/28 09:44:14;;;;;;;3.03;2.80;;;;;;;-143.99;100.00;64180.81;6071103;29;20772;-69
2023/04/28 09:47:37;;;;;;;2.37;2.17;;;;;;;-143.99;100.00;64180.81;6085462;29;20522;-72
2023/04/28 09:51:01;;;;;;;3.97;2.10;;;;;;;-143.99;100.00;64180.81;6072398;29;20233;-72
2023/04/28 09:54:24;;;;;;;2.00;1.80;;;;;;;-143.99;100.00;64180.81;6072410;29;20650;-71
2023/04/28 09:57:49;;;;;;;3.27;2.70;;;;;;;-143.99;100.00;64180.81;6075788;29;20236;-71
2023/04/28 10:01:11;;;;;;;2.03;1.47;;;;;;;-143.99;100.00;64180.81;6064970;29;20236;-70
2023/04/28 10:04:32;;;;;;;2.40;1.80;;;;;;;-143.99;100.00;64180.81;6075721;29;20229;-70
2023/04/28 10:07:55;;;;;;;2.50;1.80;;;;;;;-143.99;100.00;64180.81;6084446;29;20507;-71
2023/04/28 10:11:16;;;;;;;3.13;2.07;;;;;;;-143.99;100.00;64180.81;6075196;29;20240;-69
2023/04/28 10:14:37;;;;;;;1.87;1.73;;;;;;;-143.99;100.00;64180.81;6080191;29;20232;-70
2023/04/28 10:18:00;;;;;;;3.73;1.90;;;;;;;-143.99;100.00;64180.81;6089012;29;20252;-69
2023/04/28 10:21:23;;;;;;;2.90;2.07;;;;;;;-143.99;100.00;64180.81;6083651;29;20237;-70
2023/04/28 10:25:06;;;;;;;4.30;1.90;;;;;;;-143.99;100.00;64180.81;6085973;29;20244;-67
2023/04/28 10:28:27;;;;;;;3.00;2.60;;;;;;;-143.99;100.00;64180.81;6083094;29;22814;-71
2023/04/28 10:32:14;;;;;;;3.23;1.93;;;;;;;-143.99;100.00;64180.81;6069898;29;20230;-70
2023/04/28 10:35:43;;;;;;;4.07;1.80;;;;;;;-143.99;100.00;64180.81;6078331;29;20240;-70
2023/04/28 10:39:12;;;;;;;4.70;3.70;;;;;;;-143.99;100.00;64180.81;6078005;28;20250;-73
2023/04/28 10:42:53;;;;;;;3.43;2.50;;;;;;;-143.99;100.00;64180.81;6090901;29;20232;-70
2023/04/28 10:46:14;;;;;;;1.93;1.83;;;;;;;-143.99;100.00;64180.81;6067296;29;20615;-71
2023/04/28 10:50:09;;;;;;;4.57;2.27;;;;;;;-143.99;100.00;64180.81;6067570;29;20264;-73
2023/04/28 10:54:02;;;;;;;3.43;3.13;;;;;;;-143.99;100.00;64180.81;6068314;29;20232;-70
2023/04/28 10:57:23;;;;;;;2.60;1.90;;;;;;;-143.99;100.00;64180.81;6078860;29;20651;-69
2023/04/28 11:00:47;;;;;;;4.03;2.73;;;;;;;-143.99;100.00;64180.81;6067448;29;20237;-69
2023/04/28 11:04:11;;;;;;;2.63;2.43;;;;;;;-143.99;100.00;64180.81;6082642;28;20240;-70
2023/04/28 11:07:33;;;;;;;9.33;3.27;;;;;;;-143.99;100.00;64180.81;6083454;29;20232;-69
2023/04/28 11:11:17;;;;;;;3.70;1.97;;;;;;;-143.99;100.00;64180.81;6075593;29;20251;-70
2023/04/28 11:14:39;;;;;;;3.73;3.33;;;;;;;-143.99;100.00;64180.81;6061234;29;20237;-66
2023/04/28 11:18:04;;;;;;;2.20;1.97;;;;;;;-143.99;100.00;64180.81;6080512;29;20254;-65
2023/04/28 11:21:27;;;;;;;1.50;1.40;;;;;;;-143.99;100.00;64180.81;6088108;29;20241;-67
2023/04/28 11:24:56;;;;;;;3.40;2.00;;;;;;;-143.99;100.00;64180.81;6077968;29;20232;-65
2023/04/28 11:28:17;;;;;;;2.60;2.10;;;;;;;-143.99;100.00;64180.81;6082414;29;20598;-66
2023/04/28 11:31:39;;;;;;;6.63;2.33;;;;;;;-143.99;100.00;64180.81;6082288;29;20523;-66
2023/04/28 11:35:03;;;;;;;9.37;2.57;;;;;;;-143.99;100.00;64180.81;6069309;29;20347;-66
2023/04/28 11:38:24;;;;;;;3.67;3.00;;;;;;;-143.99;100.00;64180.81;6080201;29;20244;-66
2023/04/28 11:41:45;;;;;;;2.27;2.07;;;;;;;-143.99;100.00;64180.81;6084358;29;20229;-66
2023/04/28 11:45:12;;;;;;;2.63;2.07;;;;;;;-143.99;100.00;64180.81;6076339;29;20244;-67
2023/04/28 11:48:33;;;;;;;3.20;2.27;;;;;;;-143.99;100.00;64180.81;6070050;29;20240;-65
2023/04/28 11:51:58;;;;;;;2.67;2.20;;;;;;;-143.99;100.00;64180.81;6078677;29;20244;-64
2023/04/28 11:55:19;;;;;;;2.23;1.93;;;;;;;-143.99;100.00;64180.81;6066033;29;20228;-66
2023/04/28 11:58:40;;;;;;;2.73;1.70;;;;;;;-143.99;100.00;64180.81;6071682;28;20872;-72
2023/04/28 12:02:02;;;;;;;6.37;3.00;;;;;;;-143.99;100.00;64180.81;6078995;29;20241;-73
2023/04/28 12:05:23;;;;;;;2.20;2.00;;;;;;;-143.99;100.00;64180.81;6085742;29;20224;-69
2023/04/28 12:08:46;;;;;;;3.00;2.30;;;;;;;-143.99;100.00;64180.81;6057445;29;20252;-71
2023/04/28 12:12:08;;;;;;;3.10;2.83;;;;;;;-143.99;100.00;64180.81;6076640;29;20249;-70
2023/04/28 12:15:40;;;;;;;5.43;2.60;;;;;;;-143.99;100.00;64180.81;6076028;29;20354;-74
2023/04/28 12:19:05;;;;;;;3.63;2.60;;;;;;;-143.99;100.00;64180.81;6063597;29;20268;-73
2023/04/28 12:22:26;;;;;;;2.23;1.93;;;;;;;-143.99;100.00;64180.81;6074572;29;20233;-75
2023/04/28 12:25:49;;;;;;;5.23;3.40;;;;;;;-143.99;100.00;64180.81;6059100;29;20221;-75
2023/04/28 12:29:10;;;;;;;3.27;2.43;;;;;;;-143.99;100.00;64180.81;6059755;29;20228;-73
2023/04/28 12:32:38;;;;;;;5.30;2.90;;;;;;;-143.99;100.00;64180.81;6085768;29;20241;-71
2023/04/28 12:36:00;;;;;;;4.37;2.37;;;;;;;-143.99;100.00;64180.81;6070355;29;20602;-72
2023/04/28 12:39:21;;;;;;;3.77;2.67;;;;;;;-143.99;100.00;64180.81;6070536;29;20232;-73
2023/04/28 12:42:44;;;;;;;4.30;2.20;;;;;;;-143.99;100.00;64180.81;6079760;28;20236;-74
2023/04/28 12:46:07;;;;;;;4.23;3.10;;;;;;;-143.99;100.00;64180.81;6078934;29;20252;-72
2023/04/28 12:49:28;;;;;;;3.00;2.53;;;;;;;-143.99;100.00;64180.81;6066495;29;20236;-71
2023/04/28 12:52:49;;;;;;;3.23;3.03;;;;;;;-143.99;100.00;64180.81;6076176;29;20240;-71
2023/04/28 12:56:09;;;;;;;4.17;2.77;;;;;;;-143.99;100.00;64180.81;6074688;29;20236;-71
2023/04/28 12:59:32;;;;;;;2.87;2.43;;;;;;;-143.99;100.00;64180.81;6060087;29;20256;-70
2023/04/28 13:02:53;;;;;;;2.43;2.23;;;;;;;-143.99;100.00;64180.81;6072792;29;20511;-71
2023/04/28 13:06:14;;;;;;;3.63;3.33;;;;;;;-143.99;100.00;64180.81;6072778;29;20229;-71
2023/04/28 13:09:36;;;;;;;3.77;2.77;;;;;;;-143.99;100.00;64180.81;6073224;29;20739;-70
2023/04/28 13:12:57;;;;;;;3.57;3.20;;;;;;;-143.99;100.00;64180.81;6082502;29;20241;-70
2023/04/28 13:16:19;;;;;;;2.80;2.57;;;;;;;-143.99;100.00;64180.81;6068178;29;20229;-69
2023/04/28 13:19:40;;;;;;;3.80;2.13;;;;;;;-143.99;100.00;64180.81;6080251;28;20231;-70
2023/04/28 13:23:02;;;;;;;4.43;4.03;;;;;;;-143.99;100.00;64180.81;6077922;29;20224;-71
2023/04/28 13:26:23;;;;;;;8.23;4.30;;;;;;;-143.99;100.00;64180.81;6067932;29;20237;-71
2023/04/28 13:29:44;;;;;;;3.90;3.00;;;;;;;-143.99;100.00;64180.81;6074599;29;20601;-70
2023/04/28 13:33:06;;;;;;;3.80;3.27;;;;;;;-143.99;100.00;64180.81;6076265;29;20237;-69
2023/04/28 13:36:29;;;;;;;2.83;2.23;;;;;;;-143.99;100.00;64180.81;6089895;29;20551;-70
2023/04/28 13:39:49;;;;;;;3.20;2.90;;;;;;;-143.99;100.00;64180.81;6080784;29;20623;-70
2023/04/28 13:43:10;;;;;;;3.17;2.87;;;;;;;-143.99;100.00;64180.81;6082969;29;20237;-70
2023/04/28 13:46:31;;;;;;;4.50;3.97;;;;;;;-143.99;100.00;64180.81;6089208;29;20248;-70
2023/04/28 13:49:54;;;;;;;8.07;4.13;;;;;;;-143.99;100.00;64180.81;6083103;29;20240;-70
2023/04/28 13:53:16;;;;;;;6.93;3.83;;;;;;;-143.99;100.00;64180.81;6078565;29;20229;-70
2023/04/28 13:56:37;;;;;;;6.83;4.00;;;;;;;-143.99;100.00;64180.81;6078320;29;20583;-71
2023/04/28 13:59:58;;;;;;;3.47;3.17;;;;;;;-143.99;100.00;64180.81;6078565;29;20233;-71
2023/04/28 14:03:20;;;;;;;3.03;2.80;;;;;;;-143.99;100.00;64180.81;6085698;29;20235;-72
2023/04/28 14:06:42;;;;;;;2.73;2.53;;;;;;;-143.99;100.00;64180.81;6079268;29;20244;-71
2023/04/28 14:10:04;;;;;;;4.87;2.93;;;;;;;-143.99;100.00;64180.81;6082333;29;20237;-71
2023/04/28 14:13:25;;;;;;;5.37;3.50;;;;;;;-143.99;100.00;64180.81;6075812;29;20244;-72
2023/04/28 14:16:47;;;;;;;4.20;3.07;;;;;;;-143.99;100.00;64180.81;6069004;29;20745;-72
2023/04/28 14:20:10;;;;;;;2.80;2.60;;;;;;;-143.99;100.00;64180.81;6063382;29;20638;-70
2023/04/28 14:23:32;;;;;;;6.90;3.77;;;;;;;-143.99;100.00;64180.81;6062692;28;20237;-70
2023/04/28 14:26:53;;;;;;;4.67;3.80;;;;;;;-143.99;100.00;64180.81;6097285;29;20591;-71
2023/04/28 14:30:14;;;;;;;5.37;3.13;;;;;;;-143.99;100.00;64180.81;6075583;29;20243;-71
2023/04/28 14:33:35;;;;;;;5.10;4.60;;;;;;;-143.99;100.00;64180.81;6074544;29;20248;-70
2023/04/28 14:36:56;;;;;;;5.17;3.70;;;;;;;-143.99;100.00;64180.81;6090484;29;20240;-71
2023/04/28 14:40:18;;;;;;;4.77;3.60;;;;;;;-143.99;100.00;64180.81;6077932;29;20339;-72
2023/04/28 14:43:39;;;;;;;3.93;3.40;;;;;;;-143.99;100.00;64180.81;6070671;29;20241;-71
2023/04/28 14:47:01;;;;;;;4.03;2.83;;;;;;;-143.99;100.00;64180.81;6082733;29;20236;-71
2023/04/28 14:50:22;;;;;;;4.67;3.40;;;;;;;-143.99;100.00;64180.81;6082406;29;20231;-72
2023/04/28 14:53:43;;;;;;;6.13;4.03;;;;;;;-143.99;100.00;64180.81;6081445;29;20244;-72
2023/04/28 14:57:05;;;;;;;4.97;3.80;;;;;;;-143.99;100.00;64180.81;6089175;29;20241;-72
2023/04/28 15:00:26;;;;;;;4.13;3.63;;;;;;;-143.99;100.00;64180.81;6085786;29;20236;-71
2023/04/28 15:03:47;;;;;;;6.33;4.63;;;;;;;-143.99;100.00;64180.81;6070186;29;20236;-71
2023/04/28 15:07:08;;;;;;;4.47;4.07;;;;;;;-143.99;100.00;64180.81;6092858;29;20233;-72
2023/04/28 15:10:37;;;;;;;5.97;5.03;;;;;;;-143.99;100.00;64180.81;6090353;29;20236;-72
2023/04/28 15:13:59;;;;;;;4.20;3.77;;;;;;;-143.99;100.00;64180.81;6080095;28;20244;-73
2023/04/28 15:17:21;;;;;;;4.97;3.67;;;;;;;-143.99;100.00;64180.81;6081032;29;20240;-72
2023/04/28 15:20:42;;;;;;;4.10;3.27;;;;;;;-143.99;100.00;64180.81;6077794;28;20232;-72